createdAt,value
2019-05-21T04:34:25.731Z,12.7
2019-05-21T04:35:27.324Z,12.7
2019-05-21T04:36:29.192Z,12.8
2019-05-21T04:37:31.062Z,12.7
2019-05-21T04:38:32.929Z,12.8
2019-05-21T04:39:34.799Z,12.7
2019-05-21T04:40:36.671Z,12.8
2019-05-21T04:41:38.543Z,12.7
2019-05-21T04:42:40.427Z,12.8
2019-05-21T04:43:42.312Z,12.7
2019-05-21T04:44:44.201Z,12.7
2019-05-21T04:45:46.072Z,12.8
2019-05-21T04:46:47.948Z,12.8
2019-05-21T04:47:49.817Z,12.8
2019-05-21T04:48:51.412Z,12.8
2019-05-21T04:49:53.279Z,12.7
2019-05-21T04:50:55.155Z,12.9
2019-05-21T04:51:57.027Z,12.8
2019-05-21T04:52:58.905Z,12.8
2019-05-21T04:54:00.774Z,13
2019-05-21T04:55:02.364Z,12.8
2019-05-21T04:56:04.238Z,13
2019-05-21T04:57:06.110Z,12.8
2019-05-21T04:58:07.983Z,12.8
2019-05-21T04:59:10.114Z,12.7
2019-05-21T05:00:11.983Z,12.8
2019-05-21T05:01:13.578Z,12.9
2019-05-21T05:02:15.458Z,12.8
2019-05-21T05:03:17.331Z,12.8
2019-05-21T05:04:21.590Z,12.8
2019-05-21T05:05:23.979Z,12.8
2019-05-21T05:06:25.267Z,12.9
2019-05-21T05:07:28.780Z,12.8
2019-05-21T05:08:30.502Z,12.9
2019-05-21T05:09:32.370Z,12.8
2019-05-21T05:10:34.263Z,12.8
2019-05-21T05:11:36.133Z,12.8
2019-05-21T05:12:38.014Z,12.8
2019-05-21T05:13:39.608Z,12.9
2019-05-21T05:14:41.477Z,12.8
2019-05-21T05:15:43.347Z,12.8
2019-05-21T05:16:45.218Z,12.9
2019-05-21T05:17:47.090Z,12.8
2019-05-21T05:18:48.959Z,12.9
2019-05-21T05:19:50.831Z,12.9
2019-05-21T05:20:52.701Z,12.8
2019-05-21T05:21:54.571Z,12.8
2019-05-21T05:22:56.444Z,12.9
2019-05-21T05:23:58.318Z,12.9
2019-05-21T05:25:00.200Z,12.9
2019-05-21T05:26:02.274Z,12.9
2019-05-21T05:27:04.158Z,12.9
2019-05-21T05:28:06.323Z,12.9
2019-05-21T05:29:07.917Z,12.7
2019-05-21T05:30:09.520Z,12.8
2019-05-21T05:31:14.604Z,12.8
2019-05-21T05:32:17.112Z,12.8
2019-05-21T05:33:18.984Z,12.9
2019-05-21T05:34:20.863Z,12.8
2019-05-21T05:35:22.729Z,12.9
2019-05-21T05:36:24.599Z,12.8
2019-05-21T05:37:26.228Z,12.7
2019-05-21T05:38:49.714Z,12.8
2019-05-21T05:39:51.595Z,12.9
2019-05-21T05:40:53.177Z,12.8
2019-05-21T05:41:55.055Z,12.9
2019-05-21T05:42:56.920Z,12.7
2019-05-21T05:43:58.224Z,12.9
2019-05-21T05:45:00.120Z,12.8
2019-05-21T05:46:02.020Z,12.9
2019-05-21T05:47:03.895Z,12.9
2019-05-21T05:48:05.766Z,12.8
2019-05-21T05:49:07.362Z,12.9
2019-05-21T05:50:08.951Z,12.9
2019-05-21T05:51:10.823Z,12.9
2019-05-21T05:52:12.693Z,12.8
2019-05-21T05:53:13.998Z,12.9
2019-05-21T05:54:15.866Z,12.9
2019-05-21T05:55:17.734Z,13
2019-05-21T05:56:19.606Z,13
2019-05-21T05:57:21.494Z,12.9
2019-05-21T05:58:23.352Z,13
2019-05-21T05:59:25.215Z,13.1
2019-05-21T06:00:27.086Z,13
2019-05-21T06:01:28.969Z,12.9
2019-05-21T06:02:30.859Z,13
2019-05-21T06:03:32.730Z,13
2019-05-21T06:04:34.605Z,13.1
2019-05-21T06:05:36.476Z,13
2019-05-21T06:06:38.378Z,12.9
2019-05-21T06:07:40.268Z,13
2019-05-21T06:08:42.171Z,13
2019-05-21T06:09:44.047Z,13
2019-05-21T06:10:45.922Z,12.9
2019-05-21T06:11:47.794Z,13.1
2019-05-21T06:12:49.663Z,13
2019-05-21T06:13:51.353Z,13
2019-05-21T06:14:53.238Z,12.9
2019-05-21T06:15:54.873Z,12.9
2019-05-21T06:16:56.747Z,12.9
2019-05-21T06:17:58.620Z,12.9
2019-05-21T06:19:00.496Z,12.9
2019-05-21T06:20:02.362Z,12.9
2019-05-21T06:21:04.237Z,13
2019-05-21T06:22:06.110Z,13
2019-05-21T06:23:07.977Z,13.1
2019-05-21T06:24:13.242Z,13
2019-05-21T06:25:15.328Z,13.2
2019-05-21T06:26:16.923Z,13
2019-05-21T06:27:18.797Z,13.2
2019-05-21T06:28:20.675Z,13.2
2019-05-21T06:29:22.268Z,13.1
2019-05-21T06:30:24.140Z,13.2
2019-05-21T06:31:25.736Z,13
2019-05-21T06:32:27.612Z,13
2019-05-21T06:33:29.483Z,13.1
2019-05-21T06:34:31.357Z,13.1
2019-05-21T06:35:33.228Z,13
2019-05-21T06:36:35.097Z,13.2
2019-05-21T06:37:36.986Z,13
2019-05-21T06:38:39.026Z,13.1
2019-05-21T06:39:40.895Z,13.1
2019-05-21T06:40:42.764Z,13.1
2019-05-21T06:41:44.641Z,13.1
2019-05-21T06:42:46.516Z,13
2019-05-21T06:43:48.386Z,13.1
2019-05-21T06:44:50.258Z,13.1
2019-05-21T06:45:51.911Z,13
2019-05-21T06:46:53.791Z,13.1
2019-05-21T06:47:55.383Z,12.9
2019-05-21T06:48:57.259Z,13
2019-05-21T06:49:58.567Z,13
2019-05-21T06:51:00.189Z,13
2019-05-21T06:52:02.061Z,13
2019-05-21T06:53:03.951Z,13
2019-05-21T06:54:05.823Z,13
2019-05-21T06:55:07.410Z,13
2019-05-21T06:56:09.008Z,13
2019-05-21T06:57:10.931Z,13
2019-05-21T06:58:12.510Z,13
2019-05-21T06:59:14.382Z,12.9
2019-05-21T07:00:16.255Z,13
2019-05-21T07:01:17.855Z,13
2019-05-21T07:02:30.309Z,13.1
2019-05-21T07:03:32.193Z,13.1
2019-05-21T07:04:34.052Z,13.1
2019-05-21T07:05:35.926Z,13.1
2019-05-21T07:06:37.794Z,13
2019-05-21T07:07:39.668Z,13
2019-05-21T07:08:41.560Z,13.1
2019-05-21T07:09:43.422Z,13.1
2019-05-21T07:10:45.299Z,13.1
2019-05-21T07:11:49.477Z,12.9
2019-05-21T07:12:51.072Z,12.9
2019-05-21T07:13:52.943Z,13
2019-05-21T07:14:54.858Z,13.1
2019-05-21T07:15:56.735Z,13.1
2019-05-21T07:16:58.605Z,13.1
2019-05-21T07:18:00.487Z,13
2019-05-21T07:19:02.350Z,13.1
2019-05-21T07:20:04.240Z,13.1
2019-05-21T07:21:06.127Z,13
2019-05-21T07:22:12.447Z,13.2
2019-05-21T07:23:15.043Z,13
2019-05-21T07:24:16.914Z,13.1
2019-05-21T07:25:18.797Z,13
2019-05-21T07:26:20.831Z,13
2019-05-21T07:27:22.697Z,12.9
2019-05-21T07:28:24.574Z,12.9
2019-05-21T07:29:26.439Z,12.9
2019-05-21T07:30:28.310Z,12.9
2019-05-21T07:31:30.179Z,12.8
2019-05-21T07:32:32.047Z,13
2019-05-21T07:33:33.636Z,12.9
2019-05-21T07:34:35.508Z,13
2019-05-21T07:35:37.383Z,13.1
2019-05-21T07:36:39.252Z,13
2019-05-21T07:37:41.121Z,12.9
2019-05-21T07:38:52.406Z,13
2019-05-21T07:39:55.577Z,13
2019-05-21T07:40:57.484Z,12.9
2019-05-21T07:41:59.239Z,12.9
2019-05-21T07:43:00.830Z,12.9
2019-05-21T07:44:02.426Z,12.9
2019-05-21T07:45:03.997Z,12.9
2019-05-21T07:46:05.593Z,13
2019-05-21T07:47:07.472Z,12.9
2019-05-21T07:48:09.336Z,12.9
2019-05-21T07:49:11.205Z,13.1
2019-05-21T07:50:13.081Z,13
2019-05-21T07:51:14.952Z,13.1
2019-05-21T07:52:16.822Z,13
2019-05-21T07:53:18.695Z,13.1
2019-05-21T07:54:20.569Z,13.1
2019-05-21T07:55:22.439Z,13.1
2019-05-21T07:56:24.024Z,13.1
2019-05-21T07:57:25.900Z,13.1
2019-05-21T07:58:27.770Z,13.1
2019-05-21T07:59:29.641Z,13
2019-05-21T08:00:31.514Z,12.9
2019-05-21T08:01:33.383Z,12.9
2019-05-21T08:02:35.257Z,13.1
2019-05-21T08:03:37.128Z,13
2019-05-21T08:04:39.004Z,13
2019-05-21T08:05:40.871Z,12.9
2019-05-21T08:06:42.758Z,13.1
2019-05-21T08:07:45.155Z,13
2019-05-21T08:08:47.033Z,12.9
2019-05-21T08:09:48.912Z,13
2019-05-21T08:10:50.803Z,13
2019-05-21T08:11:52.397Z,12.9
2019-05-21T08:12:54.271Z,13.1
2019-05-21T08:13:55.873Z,13.1
2019-05-21T08:14:57.750Z,13.1
2019-05-21T08:15:59.628Z,13
2019-05-21T08:17:01.212Z,13
2019-05-21T08:18:03.086Z,13
2019-05-21T08:19:04.951Z,12.9
2019-05-21T08:20:09.697Z,13
2019-05-21T08:21:12.240Z,13
2019-05-21T08:22:13.832Z,12.8
2019-05-21T08:23:15.701Z,12.9
2019-05-21T08:24:17.019Z,12.9
2019-05-21T08:25:18.893Z,13
2019-05-21T08:26:20.757Z,13
2019-05-21T08:27:22.082Z,12.9
2019-05-21T08:28:23.674Z,12.9
2019-05-21T08:29:25.540Z,12.9
2019-05-21T08:30:27.415Z,13.1
2019-05-21T08:31:29.290Z,12.9
2019-05-21T08:32:31.158Z,13
2019-05-21T08:33:33.027Z,13.1
2019-05-21T08:34:34.912Z,13.1
2019-05-21T08:35:36.799Z,13
2019-05-21T08:36:38.699Z,13.2
2019-05-21T08:37:40.584Z,13.1
2019-05-21T08:38:42.456Z,13.1
2019-05-21T08:39:44.331Z,13.1
2019-05-21T08:40:46.196Z,13
2019-05-21T08:41:48.070Z,13
2019-05-21T08:42:49.664Z,13.1
2019-05-21T08:43:51.576Z,13.1
2019-05-21T08:44:53.183Z,13.1
2019-05-21T08:45:55.056Z,13
2019-05-21T08:46:56.360Z,13
2019-05-21T08:47:58.232Z,13.2
2019-05-21T08:49:00.107Z,13
2019-05-21T08:50:01.975Z,13.1
2019-05-21T08:51:03.841Z,13
2019-05-21T08:52:05.743Z,12.9
2019-05-21T08:53:07.337Z,12.9
2019-05-21T08:54:09.208Z,13
2019-05-21T08:55:11.081Z,13.1
2019-05-21T08:56:12.958Z,13.1
2019-05-21T08:57:14.831Z,13.1
2019-05-21T08:58:16.711Z,13
2019-05-21T08:59:18.575Z,13.2
2019-05-21T09:00:20.449Z,13.2
2019-05-21T09:01:22.029Z,13.1
2019-05-21T09:02:23.945Z,13.2
2019-05-21T09:03:25.813Z,13.1
2019-05-21T09:04:45.217Z,13.1
2019-05-21T09:07:45.065Z,13
2019-05-21T09:08:54.644Z,13.1
2019-05-21T09:09:55.965Z,13.2
2019-05-21T09:10:57.556Z,13.2
2019-05-21T09:11:59.476Z,13.1
2019-05-21T09:13:01.364Z,13.1
2019-05-21T09:14:03.231Z,13.2
2019-05-21T09:15:05.173Z,13.1
2019-05-21T09:16:06.769Z,13.2
2019-05-21T09:17:08.363Z,13
2019-05-21T09:18:10.235Z,13.1
2019-05-21T09:19:11.814Z,13.1
2019-05-21T09:20:13.686Z,13.1
2019-05-21T09:21:15.586Z,13
2019-05-21T09:22:17.461Z,13.1
2019-05-21T09:23:19.351Z,13.1
2019-05-21T09:24:21.219Z,13.2
2019-05-21T09:25:23.094Z,13.1
2019-05-21T09:26:24.389Z,13.2
2019-05-21T09:27:26.267Z,13.3
2019-05-21T09:28:28.143Z,13.2
2019-05-21T09:29:29.726Z,13.2
2019-05-21T09:30:31.619Z,13.3
2019-05-21T09:31:33.490Z,13.3
2019-05-21T09:32:35.369Z,13.3
2019-05-21T09:33:36.696Z,13.3
2019-05-21T09:34:47.822Z,13.3
2019-05-21T09:35:50.443Z,13.2
2019-05-21T09:36:52.319Z,13.3
2019-05-21T09:37:54.193Z,13.2
2019-05-21T09:38:56.073Z,13.3
2019-05-21T09:39:57.668Z,13.3
2019-05-21T09:40:59.539Z,13.4
2019-05-21T09:42:01.430Z,13.4
2019-05-21T09:43:03.443Z,13.3
2019-05-21T09:44:05.326Z,13.2
2019-05-21T09:45:07.230Z,13.3
2019-05-21T09:46:09.207Z,13.2
2019-05-21T09:47:10.809Z,13.2
2019-05-21T09:48:12.684Z,13.3
2019-05-21T09:49:14.604Z,13.3
2019-05-21T09:50:16.478Z,13.2
2019-05-21T09:51:19.916Z,13.3
2019-05-21T09:52:22.190Z,13.3
2019-05-21T09:53:23.784Z,13.3
2019-05-21T09:54:25.655Z,13.3
2019-05-21T09:55:27.529Z,13.3
2019-05-21T09:56:29.451Z,13.3
2019-05-21T09:57:31.326Z,13.3
2019-05-21T09:58:33.207Z,13.4
2019-05-21T09:59:35.126Z,13.2
2019-05-21T10:00:36.998Z,13.4
2019-05-21T10:01:39.024Z,13.2
2019-05-21T10:02:40.887Z,13.4
2019-05-21T10:03:42.786Z,13.2
2019-05-21T10:04:45.193Z,13.3
2019-05-21T10:05:47.077Z,13.3
2019-05-21T10:06:48.939Z,13.3
2019-05-21T10:07:50.813Z,13.3
2019-05-21T10:08:52.695Z,13.3
2019-05-21T10:09:54.562Z,13.4
2019-05-21T10:10:56.184Z,13.4
2019-05-21T10:11:57.772Z,13.3
2019-05-21T10:12:59.707Z,13.4
2019-05-21T10:14:01.634Z,13.4
2019-05-21T10:15:03.518Z,13.2
2019-05-21T10:16:05.419Z,13.4
2019-05-21T10:17:07.337Z,13.5
2019-05-21T10:18:09.206Z,13.4
2019-05-21T10:19:11.079Z,13.4
2019-05-21T10:20:12.954Z,13.4
2019-05-21T10:21:14.548Z,13.4
2019-05-21T10:22:16.425Z,13.4
2019-05-21T10:23:18.293Z,13.4
2019-05-21T10:24:19.889Z,13.3
2019-05-21T10:25:21.764Z,13.3
2019-05-21T10:26:23.635Z,13.3
2019-05-21T10:27:25.520Z,13.3
2019-05-21T10:28:27.403Z,13.3
2019-05-21T10:29:29.281Z,13.3
2019-05-21T10:30:31.139Z,13.2
2019-05-21T10:31:33.021Z,13.3
2019-05-21T10:32:34.892Z,13.3
2019-05-21T10:33:36.764Z,13.1
2019-05-21T10:34:38.639Z,13.1
2019-05-21T10:35:40.507Z,13.2
2019-05-21T10:36:42.377Z,13.2
2019-05-21T10:37:54.269Z,13.2
2019-05-21T10:38:57.043Z,13.2
2019-05-21T10:39:58.923Z,13.3
2019-05-21T10:41:00.800Z,13.3
2019-05-21T10:42:02.790Z,13.2
2019-05-21T10:43:04.651Z,13.1
2019-05-21T10:44:06.226Z,13.3
2019-05-21T10:45:08.121Z,13.3
2019-05-21T10:46:09.694Z,13.2
2019-05-21T10:47:15.863Z,13.2
2019-05-21T10:48:18.073Z,13.2
2019-05-21T10:49:19.994Z,13.2
2019-05-21T10:50:21.638Z,13.2
2019-05-21T10:51:23.226Z,13.2
2019-05-21T10:52:25.105Z,13.2
2019-05-21T10:53:27.007Z,13.1
2019-05-21T10:54:29.024Z,13.1
2019-05-21T10:55:30.987Z,13.1
2019-05-21T10:56:46.632Z,13.2
2019-05-21T10:57:50.097Z,13.2
2019-05-21T10:58:51.980Z,13.2
2019-05-21T10:59:53.854Z,13.3
2019-05-21T11:00:55.766Z,13.1
2019-05-21T11:01:57.639Z,13.3
2019-05-21T11:02:59.528Z,13.1
2019-05-21T11:04:01.423Z,13.2
2019-05-21T11:05:03.293Z,13.2
2019-05-21T11:06:09.902Z,13.2
2019-05-21T11:07:12.331Z,13.2
2019-05-21T11:08:23.808Z,13.2
2019-05-21T11:09:26.483Z,13.2
2019-05-21T11:10:28.491Z,13.3
2019-05-21T11:11:30.398Z,13.4
2019-05-21T11:12:31.969Z,13.2
2019-05-21T11:13:33.840Z,13.3
2019-05-21T11:14:35.767Z,13.3
2019-05-21T11:15:37.361Z,13.3
2019-05-21T11:16:39.309Z,13.3
2019-05-21T11:17:53.540Z,13.5
2019-05-21T11:19:12.844Z,13.3
2019-05-21T11:20:14.712Z,13.4
2019-05-21T11:21:16.593Z,13.3
2019-05-21T11:22:18.211Z,13.3
2019-05-21T11:23:20.082Z,13.3
2019-05-21T11:24:21.667Z,13.4
2019-05-21T11:25:23.535Z,13.4
2019-05-21T11:26:25.414Z,13.4
2019-05-21T11:27:27.292Z,13.4
2019-05-21T11:28:29.165Z,13.4
2019-05-21T11:29:31.048Z,13.4
2019-05-21T11:30:32.953Z,13.5
2019-05-21T11:31:34.876Z,13.3
2019-05-21T11:32:36.468Z,13.4
2019-05-21T11:33:38.346Z,13.5
2019-05-21T11:34:40.215Z,13.3
2019-05-21T11:35:41.814Z,13.3
2019-05-21T11:36:43.707Z,13.4
2019-05-21T11:37:47.757Z,13.4
2019-05-21T11:38:49.904Z,13.3
2019-05-21T11:39:51.502Z,13.3
2019-05-21T11:40:53.372Z,13.3
2019-05-21T11:41:55.258Z,13.3
2019-05-21T11:42:57.128Z,13.3
2019-05-21T11:43:58.999Z,13.3
2019-05-21T11:45:00.871Z,13.3
2019-05-21T11:46:03.198Z,13.3
2019-05-21T11:47:05.202Z,13.4
2019-05-21T11:48:07.099Z,13.4
2019-05-21T11:49:08.962Z,13.4
2019-05-21T11:50:10.833Z,13.4
2019-05-21T11:51:12.996Z,13.4
2019-05-21T11:52:14.894Z,13.3
2019-05-21T11:53:16.765Z,13.5
2019-05-21T11:54:18.650Z,13.4
2019-05-21T11:55:20.520Z,13.3
2019-05-21T11:56:22.395Z,13.3
2019-05-21T11:57:23.983Z,13.4
2019-05-21T11:58:25.852Z,13.3
2019-05-21T11:59:27.727Z,13.3
2019-05-21T12:00:29.593Z,13.3
2019-05-21T12:01:31.479Z,13.4
2019-05-21T12:02:33.355Z,13.4
2019-05-21T12:03:34.934Z,13.4
2019-05-21T12:04:36.806Z,13.3
2019-05-21T12:05:38.679Z,13.3
2019-05-21T12:06:40.277Z,13.4
2019-05-21T12:07:41.890Z,13.4
2019-05-21T12:08:55.926Z,13.4
2019-05-21T12:09:58.905Z,13.5
2019-05-21T12:11:00.774Z,13.4
2019-05-21T12:12:02.662Z,13.5
2019-05-21T12:13:04.536Z,13.4
2019-05-21T12:14:06.407Z,13.6
2019-05-21T12:15:08.275Z,13.6
2019-05-21T12:16:10.000Z,13.5
2019-05-21T12:17:11.870Z,13.5
2019-05-21T12:18:13.769Z,13.5
2019-05-21T12:19:15.638Z,13.4
2019-05-21T12:20:33.577Z,13.5
2019-05-21T12:21:38.606Z,13.5
2019-05-21T12:22:40.486Z,13.5
2019-05-21T12:23:42.359Z,13.5
2019-05-21T12:24:44.520Z,13.5
2019-05-21T12:25:45.835Z,13.6
2019-05-21T12:26:47.435Z,13.6
2019-05-21T12:27:49.319Z,13.6
2019-05-21T12:28:51.195Z,13.5
2019-05-21T12:29:53.195Z,13.6
2019-05-21T12:30:55.075Z,13.5
2019-05-21T12:31:56.947Z,13.6
2019-05-21T12:32:58.816Z,13.6
2019-05-21T12:34:00.688Z,13.6
2019-05-21T12:35:02.631Z,13.7
2019-05-21T12:36:04.525Z,13.7
2019-05-21T12:37:06.397Z,13.7
2019-05-21T12:38:08.291Z,13.8
2019-05-21T12:39:14.015Z,13.8
2019-05-21T12:40:16.592Z,13.9
2019-05-21T12:41:18.465Z,13.6
2019-05-21T12:42:20.352Z,13.8
2019-05-21T12:43:22.225Z,13.8
2019-05-21T12:44:24.105Z,13.9
2019-05-21T12:45:25.977Z,13.8
2019-05-21T12:46:27.849Z,13.9
2019-05-21T12:47:29.731Z,13.8
2019-05-21T12:48:31.320Z,13.8
2019-05-21T12:49:33.198Z,13.8
2019-05-21T12:50:35.063Z,13.8
2019-05-21T12:51:36.932Z,13.7
2019-05-21T12:52:38.815Z,13.8
2019-05-21T12:53:40.736Z,13.8
2019-05-21T12:54:42.615Z,13.7
2019-05-21T12:55:44.487Z,13.9
2019-05-21T12:56:46.363Z,13.8
2019-05-21T12:57:48.233Z,13.8
2019-05-21T12:58:50.102Z,13.8
2019-05-21T12:59:51.976Z,13.8
2019-05-21T13:00:53.845Z,13.9
2019-05-21T13:01:55.721Z,13.8
2019-05-21T13:02:57.590Z,13.9
2019-05-21T13:03:59.457Z,13.9
2019-05-21T13:05:01.339Z,13.9
2019-05-21T13:06:03.248Z,13.9
2019-05-21T13:07:04.739Z,13.9
2019-05-21T13:08:06.633Z,14
2019-05-21T13:09:08.590Z,14
2019-05-21T13:10:09.916Z,14.1
2019-05-21T13:11:11.788Z,14.1
2019-05-21T13:12:13.663Z,14.1
2019-05-21T13:13:15.535Z,14.1
2019-05-21T13:14:18.799Z,14.3
2019-05-21T13:15:20.558Z,14.2
2019-05-21T13:16:22.430Z,14.3
2019-05-21T13:17:24.327Z,14.4
2019-05-21T13:18:26.207Z,14.5
2019-05-21T13:19:28.088Z,14.5
2019-05-21T13:20:29.986Z,14.7
2019-05-21T13:21:31.887Z,14.9
2019-05-21T13:22:33.887Z,14.8
2019-05-21T13:23:35.471Z,14.8
2019-05-21T13:24:37.344Z,14.9
2019-05-21T13:25:38.961Z,15
2019-05-21T13:26:40.840Z,14.9
2019-05-21T13:27:42.447Z,15
2019-05-21T13:28:44.332Z,15
2019-05-21T13:29:46.438Z,15
2019-05-21T13:30:47.936Z,15
2019-05-21T13:31:49.577Z,14.9
2019-05-21T13:32:51.610Z,14.9
2019-05-21T13:33:53.481Z,14.9
2019-05-21T13:34:55.075Z,15
2019-05-21T13:35:56.948Z,15
2019-05-21T13:36:58.829Z,15
2019-05-21T13:38:00.762Z,15
2019-05-21T13:39:02.679Z,15
2019-05-21T13:40:03.997Z,15.1
2019-05-21T13:41:05.867Z,15.1
2019-05-21T13:42:07.187Z,15
2019-05-21T13:43:08.860Z,15.1
2019-05-21T13:44:10.734Z,15
2019-05-21T13:45:12.603Z,15
2019-05-21T13:46:14.571Z,15.1
2019-05-21T13:47:16.476Z,15
2019-05-21T13:48:18.360Z,15
2019-05-21T13:49:20.244Z,15.1
2019-05-21T13:50:22.129Z,15.1
2019-05-21T13:51:24.064Z,14.9
2019-05-21T13:52:25.933Z,14.9
2019-05-21T13:53:27.811Z,14.9
2019-05-21T13:54:29.695Z,14.9
2019-05-21T13:55:33.907Z,14.9
2019-05-21T13:56:35.921Z,15
2019-05-21T13:57:37.789Z,14.9
2019-05-21T13:58:39.663Z,15
2019-05-21T13:59:41.547Z,15
2019-05-21T14:00:43.440Z,15
2019-05-21T14:01:45.309Z,15
2019-05-21T14:02:47.277Z,15
2019-05-21T14:03:49.152Z,15.1
2019-05-21T14:04:51.058Z,15.1
2019-05-21T14:05:52.917Z,15
2019-05-21T14:06:54.618Z,15.2
2019-05-21T14:07:57.107Z,15.1
2019-05-21T14:08:58.973Z,15.2
2019-05-21T14:10:13.829Z,15.1
2019-05-21T14:11:22.699Z,15.2
2019-05-21T14:12:24.591Z,15.2
2019-05-21T14:13:26.444Z,15.3
2019-05-21T14:14:28.319Z,15.4
2019-05-21T14:15:30.209Z,15.5
2019-05-21T14:16:34.718Z,15.6
2019-05-21T14:17:36.804Z,15.5
2019-05-21T14:18:38.870Z,15.6
2019-05-21T14:19:40.855Z,15.8
2019-05-21T14:20:42.460Z,15.7
2019-05-21T14:21:44.334Z,15.8
2019-05-21T14:22:46.218Z,15.9
2019-05-21T14:23:48.076Z,15.8
2019-05-21T14:24:49.957Z,15.8
2019-05-21T14:25:51.852Z,15.9
2019-05-21T14:26:53.710Z,15.9
2019-05-21T14:27:55.588Z,15.9
2019-05-21T14:28:57.459Z,16
2019-05-21T14:29:59.335Z,15.8
2019-05-21T14:31:01.219Z,16
2019-05-21T14:32:03.107Z,15.8
2019-05-21T14:33:05.000Z,16
2019-05-21T14:34:06.899Z,16
2019-05-21T14:35:08.772Z,16
2019-05-21T14:36:10.860Z,16
2019-05-21T14:37:12.733Z,15.9
2019-05-21T14:38:14.331Z,16
2019-05-21T14:39:16.204Z,16
2019-05-21T14:40:30.838Z,16.1
2019-05-21T14:41:34.001Z,15.9
2019-05-21T14:42:35.340Z,16
2019-05-21T14:43:37.200Z,15.9
2019-05-21T14:44:39.076Z,15.8
2019-05-21T14:45:40.959Z,15.9
2019-05-21T14:46:42.844Z,15.8
2019-05-21T14:47:43.606Z,15.8
2019-05-21T14:48:45.479Z,15.8
2019-05-21T14:49:47.355Z,15.7
2019-05-21T14:50:49.238Z,15.9
2019-05-21T14:51:50.819Z,15.8
2019-05-21T14:52:52.543Z,15.9
2019-05-21T14:53:54.424Z,16
2019-05-21T14:54:56.064Z,16
2019-05-21T14:55:58.003Z,16
2019-05-21T14:56:59.883Z,15.9
2019-05-21T14:58:01.745Z,15.9
2019-05-21T14:59:03.634Z,15.9
2019-05-21T15:00:05.488Z,15.9
2019-05-21T15:01:07.364Z,15.8
2019-05-21T15:02:09.232Z,15.9
2019-05-21T15:03:24.134Z,16
2019-05-21T15:04:30.614Z,16.1
2019-05-21T15:05:33.499Z,16
2019-05-21T15:06:35.369Z,16.1
2019-05-21T15:07:37.326Z,15.9
2019-05-21T15:08:39.213Z,16
2019-05-21T15:09:41.138Z,16
2019-05-21T15:10:48.309Z,15.9
2019-05-21T15:11:50.920Z,15.9
2019-05-21T15:12:52.792Z,15.8
2019-05-21T15:13:54.379Z,15.8
2019-05-21T15:14:55.982Z,15.7
2019-05-21T15:15:57.852Z,15.7
2019-05-21T15:16:59.725Z,15.7
2019-05-21T15:18:01.606Z,15.7
2019-05-21T15:19:03.365Z,15.8
2019-05-21T15:20:05.279Z,15.6
2019-05-21T15:21:07.256Z,15.7
2019-05-21T15:22:09.335Z,15.8
2019-05-21T15:23:10.942Z,15.6
2019-05-21T15:24:12.934Z,15.7
2019-05-21T15:25:15.795Z,15.8
2019-05-21T15:26:17.672Z,15.7
2019-05-21T15:27:19.321Z,15.7
2019-05-21T15:28:21.211Z,15.9
2019-05-21T15:29:22.810Z,15.7
2019-05-21T15:30:24.687Z,15.9
2019-05-21T15:31:26.577Z,15.8
2019-05-21T15:32:29.725Z,15.7
2019-05-21T15:33:32.377Z,15.8
2019-05-21T15:34:33.975Z,15.7
2019-05-21T15:35:35.853Z,15.8
2019-05-21T15:36:37.737Z,15.8
2019-05-21T15:37:39.619Z,15.8
2019-05-21T15:38:50.464Z,15.8
2019-05-21T15:39:52.895Z,15.7
2019-05-21T15:41:09.221Z,15.7
2019-05-21T15:42:14.148Z,15.7
2019-05-21T15:43:15.755Z,15.8
2019-05-21T15:44:17.632Z,15.8
2019-05-21T15:45:19.525Z,15.8
2019-05-21T15:46:21.388Z,15.8
2019-05-21T15:47:23.261Z,15.7
2019-05-21T15:48:26.470Z,15.6
2019-05-21T15:49:35.822Z,15.5
2019-05-21T15:50:38.749Z,15.4
2019-05-21T15:51:40.627Z,15.4
2019-05-21T15:52:42.496Z,15.3
2019-05-21T15:53:44.087Z,15.3
2019-05-21T15:56:08.087Z,15.3
2019-05-21T15:57:10.735Z,15.2
2019-05-21T15:58:12.813Z,15.2
2019-05-21T15:59:14.398Z,15.3
2019-05-21T16:00:16.266Z,15.2
2019-05-21T16:01:18.138Z,15.1
2019-05-21T16:02:19.747Z,15.2
2019-05-21T16:03:21.632Z,15.2
2019-05-21T16:04:23.235Z,15.2
2019-05-21T16:05:25.104Z,15.1
2019-05-21T16:06:26.989Z,15.2
2019-05-21T16:07:28.571Z,15.2
2019-05-21T16:08:30.464Z,15.2
2019-05-21T16:09:32.314Z,15.2
2019-05-21T16:10:33.928Z,15.3
2019-05-21T16:11:35.801Z,15.2
2019-05-21T16:12:37.667Z,15.2
2019-05-21T16:13:39.566Z,15.3
2019-05-21T16:14:40.933Z,15.3
2019-05-21T16:15:42.802Z,15.2
2019-05-21T16:16:44.685Z,15.2
2019-05-21T16:17:46.552Z,15.2
2019-05-21T16:18:48.426Z,15.2
2019-05-21T16:19:50.299Z,15.4
2019-05-21T16:20:52.168Z,15.2
2019-05-21T16:21:54.040Z,15.2
2019-05-21T16:22:55.969Z,15.3
2019-05-21T16:23:57.925Z,15.4
2019-05-21T16:24:59.815Z,15.3
2019-05-21T16:26:01.627Z,15.3
2019-05-21T16:27:03.266Z,15.3
2019-05-21T16:28:05.139Z,15.3
2019-05-21T16:29:07.017Z,15.2
2019-05-21T16:30:08.884Z,15.3
2019-05-21T16:31:10.753Z,15.3
2019-05-21T16:32:12.625Z,15.3
2019-05-21T16:33:14.501Z,15.2
2019-05-21T16:34:16.398Z,15.2
2019-05-21T16:35:18.268Z,15.3
2019-05-21T16:36:20.152Z,15.2
2019-05-21T16:37:21.801Z,15.2
2019-05-21T16:38:23.397Z,15.3
2019-05-21T16:39:25.271Z,15.3
2019-05-21T16:40:27.171Z,15.2
2019-05-21T16:41:43.378Z,15.2
2019-05-21T16:42:46.935Z,15.2
2019-05-21T16:43:48.806Z,15
2019-05-21T16:44:50.678Z,15
2019-05-21T16:45:52.551Z,15
2019-05-21T16:46:54.484Z,15
2019-05-21T16:47:56.358Z,15
2019-05-21T16:48:58.223Z,15
2019-05-21T16:50:00.095Z,15.1
2019-05-21T16:51:02.011Z,15.1
2019-05-21T16:52:03.568Z,15.1
2019-05-21T16:53:05.443Z,14.9
2019-05-21T16:54:07.317Z,14.8
2019-05-21T16:55:09.181Z,14.8
2019-05-21T16:56:11.054Z,14.8
2019-05-21T16:57:13.079Z,14.9
2019-05-21T16:58:14.954Z,14.8
2019-05-21T16:59:16.575Z,14.8
2019-05-21T17:00:18.158Z,14.9
2019-05-21T17:01:20.031Z,14.9
2019-05-21T17:02:21.904Z,14.8
2019-05-21T17:03:23.880Z,14.9
2019-05-21T17:04:25.474Z,14.8
2019-05-21T17:05:27.346Z,14.8
2019-05-21T17:06:29.217Z,14.8
2019-05-21T17:07:31.220Z,14.7
2019-05-21T17:08:32.842Z,14.9
2019-05-21T17:09:34.700Z,14.8
2019-05-21T17:10:36.573Z,14.9
2019-05-21T17:11:38.440Z,14.6
2019-05-21T17:12:40.317Z,14.6
2019-05-21T17:13:42.184Z,14.7
2019-05-21T17:14:44.057Z,14.6
2019-05-21T17:15:45.934Z,14.7
2019-05-21T17:16:47.505Z,14.6
2019-05-21T17:17:49.376Z,14.6
2019-05-21T17:18:51.252Z,14.6
2019-05-21T17:19:53.121Z,14.6
2019-05-21T17:20:55.045Z,14.5
2019-05-21T17:21:56.915Z,14.4
2019-05-21T17:22:58.788Z,14.4
2019-05-21T17:24:00.655Z,14.5
2019-05-21T17:25:02.528Z,14.4
2019-05-21T17:26:04.403Z,14.6
2019-05-21T17:27:06.276Z,14.4
2019-05-21T17:28:07.868Z,14.4
2019-05-21T17:29:09.738Z,14.4
2019-05-21T17:30:11.610Z,14.4
2019-05-21T17:31:13.490Z,14.4
2019-05-21T17:32:15.113Z,14.3
2019-05-21T17:33:16.995Z,14.4
2019-05-21T17:34:18.590Z,14.4
2019-05-21T17:35:20.468Z,14.4
2019-05-21T17:36:22.337Z,14.5
2019-05-21T17:37:24.209Z,14.3
2019-05-21T17:38:26.088Z,14.3
2019-05-21T17:39:27.960Z,14.2
2019-05-21T17:40:29.830Z,14.3
2019-05-21T17:41:31.701Z,14.3
2019-05-21T17:42:33.576Z,14.2
2019-05-21T17:43:35.495Z,14.3
2019-05-21T17:44:37.366Z,14.2
2019-05-21T17:45:39.250Z,14.2
2019-05-21T17:46:41.119Z,14.2
2019-05-21T17:47:42.994Z,14.2
2019-05-21T17:48:44.866Z,14.2
2019-05-21T17:49:46.737Z,14.1
2019-05-21T17:50:48.607Z,14
2019-05-21T17:51:50.480Z,14.1
2019-05-21T17:52:52.355Z,14.2
2019-05-21T17:53:54.235Z,14.1
2019-05-21T17:54:57.239Z,14.1
2019-05-21T17:55:59.156Z,14
2019-05-21T17:57:01.036Z,14
2019-05-21T17:58:02.903Z,14
2019-05-21T17:59:04.782Z,13.9
2019-05-21T18:00:06.431Z,13.9
2019-05-21T18:01:08.296Z,13.9
2019-05-21T18:02:10.169Z,13.9
2019-05-21T18:03:12.041Z,14
2019-05-21T18:04:13.909Z,13.9
2019-05-21T18:05:15.786Z,13.9
2019-05-21T18:06:16.820Z,13.9
2019-05-21T18:07:18.958Z,13.9
2019-05-21T18:08:20.829Z,14
2019-05-21T18:09:22.697Z,13.9
2019-05-21T18:10:24.568Z,13.8
2019-05-21T18:11:26.438Z,13.8
2019-05-21T18:12:31.869Z,13.9
2019-05-21T18:13:34.121Z,13.8
2019-05-21T18:14:35.718Z,13.8
2019-05-21T18:15:37.588Z,13.9
2019-05-21T18:16:39.463Z,13.8
2019-05-21T18:17:41.335Z,13.8
2019-05-21T18:18:43.214Z,13.9
2019-05-21T18:19:45.085Z,13.7
2019-05-21T18:20:46.951Z,13.8
2019-05-21T18:21:48.533Z,13.7
2019-05-21T18:22:50.124Z,13.7
2019-05-21T18:23:52.246Z,13.6
2019-05-21T18:24:54.116Z,13.6
2019-05-21T18:25:55.987Z,13.7
2019-05-21T18:26:57.871Z,13.7
2019-05-21T18:27:59.817Z,13.7
2019-05-21T18:29:01.714Z,13.7
2019-05-21T18:30:04.012Z,13.7
2019-05-21T18:31:06.074Z,13.7
2019-05-21T18:32:08.108Z,13.7
2019-05-21T18:33:09.990Z,13.7
2019-05-21T18:34:11.853Z,13.6
2019-05-21T18:35:13.724Z,13.6